Time;durP1;ratioP1;P1;durP2;ratioP2;P2;SDS_P1;SDS_P2;PMS_P1;PMS_P2;Temp;Humidity;BMP_temperature;BMP_pressure;BME280_temperature;BME280_humidity;BME280_pressure;Samples;Min_cycle;Max_cycle;Signal;HPM_P1;HPM_P2
2023/12/24 08:16:25;;;;;;;11.32;3.75;;;;;;;10.53;100.00;100014.97;5127837;23;20064;-76
2023/12/24 08:18:50;;;;;;;11.15;2.97;;;;;;;10.48;100.00;100001.41;4832578;29;20107;-76
2023/12/24 08:21:15;;;;;;;12.50;3.90;;;;;;;10.49;100.00;100017.78;4833463;29;20117;-76
2023/12/24 08:23:41;;;;;;;14.15;4.10;;;;;;;10.57;100.00;100010.19;4832079;29;20492;-75
2023/12/24 08:26:06;;;;;;;14.68;3.85;;;;;;;10.57;100.00;100010.19;4833477;29;20097;-75
2023/12/24 08:28:31;;;;;;;6.88;2.88;;;;;;;10.50;100.00;100011.00;4839369;29;20126;-75
2023/12/24 08:30:57;;;;;;;14.52;3.40;;;;;;;10.56;100.00;100025.38;4836184;29;20038;-76
2023/12/24 08:33:22;;;;;;;8.68;2.75;;;;;;;10.55;100.00;100026.56;4835650;29;20120;-76
2023/12/24 08:35:48;;;;;;;11.68;2.70;;;;;;;10.55;100.00;100018.19;4836982;29;20030;-76
2023/12/24 08:38:13;;;;;;;9.80;2.58;;;;;;;10.62;100.00;100028.56;4826090;29;20041;-77
2023/12/24 08:40:38;;;;;;;11.82;3.22;;;;;;;10.54;100.00;100027.75;4835164;29;20132;-76
2023/12/24 08:43:05;;;;;;;9.15;3.67;;;;;;;10.60;100.00;100017.78;4829032;29;20087;-76
2023/12/24 08:45:31;;;;;;;8.18;2.97;;;;;;;10.60;100.00;100020.56;4829727;29;20034;-76
2023/12/24 08:47:57;;;;;;;10.82;2.63;;;;;;;10.58;100.00;100007.00;4843738;29;20042;-76
2023/12/24 08:50:23;;;;;;;6.68;2.58;;;;;;;10.51;100.00;100000.59;4832329;29;20034;-76
2023/12/24 08:52:49;;;;;;;12.07;3.10;;;;;;;11.03;100.00;99992.56;4838347;29;20068;-76
2023/12/24 08:55:16;;;;;;;8.52;3.00;;;;;;;10.68;100.00;99994.19;4830190;29;20452;-76
2023/12/24 08:57:42;;;;;;;7.10;3.22;;;;;;;10.67;100.00;99998.19;4829564;29;20041;-77
2023/12/24 09:00:11;;;;;;;16.48;3.33;;;;;;;10.64;100.00;100010.19;4833151;29;20042;-76
2023/12/24 09:02:39;;;;;;;10.20;3.50;;;;;;;10.52;100.00;100011.41;4835610;29;20362;-76
2023/12/24 09:05:09;;;;;;;7.88;2.53;;;;;;;10.55;100.00;100018.19;4836579;29;20037;-76
2023/12/24 09:07:36;;;;;;;7.78;3.15;;;;;;;10.60;100.00;100003.78;4847324;29;20042;-76
2023/12/24 09:10:03;;;;;;;18.50;4.30;;;;;;;10.65;100.00;100006.19;4826792;29;20551;-77
2023/12/24 09:12:29;;;;;;;15.02;3.15;;;;;;;10.57;100.00;99999.78;4829895;29;20021;-76
2023/12/24 09:14:55;;;;;;;11.02;3.53;;;;;;;10.67;100.00;99989.00;4831719;29;20030;-76
2023/12/24 09:17:21;;;;;;;15.98;4.00;;;;;;;10.76;100.00;99990.19;4835468;29;20050;-75
2023/12/24 09:19:48;;;;;;;11.45;3.42;;;;;;;10.78;100.00;99990.59;4829694;29;20488;-77
2023/12/24 09:22:13;;;;;;;14.13;3.33;;;;;;;10.78;100.00;99982.19;4831836;29;20033;-76
2023/12/24 09:24:38;;;;;;;14.27;3.47;;;;;;;10.87;100.00;99978.19;4830504;29;20090;-76
2023/12/24 09:27:04;;;;;;;12.70;3.30;;;;;;;10.91;100.00;99984.59;4832411;29;20175;-76
2023/12/24 09:29:30;;;;;;;12.65;2.92;;;;;;;10.88;100.00;99974.16;4828414;29;20070;-76
2023/12/24 09:31:55;;;;;;;8.77;3.13;;;;;;;10.88;100.00;99993.78;4825082;29;20041;-76
2023/12/24 09:34:21;;;;;;;15.88;2.97;;;;;;;10.86;100.00;99988.59;4834230;29;20037;-76
2023/12/24 09:36:46;;;;;;;12.48;2.85;;;;;;;10.95;100.00;99979.78;4833305;29;20031;-76
2023/12/24 09:39:11;;;;;;;11.18;3.78;;;;;;;10.90;100.00;99982.97;4831275;29;20048;-76
2023/12/24 09:41:37;;;;;;;11.27;3.05;;;;;;;11.00;100.00;99998.97;4826991;29;20137;-76
2023/12/24 09:44:03;;;;;;;13.90;3.03;;;;;;;10.94;100.00;100006.16;4831846;29;20065;-76
2023/12/24 09:46:28;;;;;;;8.60;3.65;;;;;;;10.88;100.00;99993.78;4832251;29;20041;-76
2023/12/24 09:48:54;;;;;;;9.68;2.80;;;;;;;10.92;100.00;99992.59;4833734;29;20091;-76
2023/12/24 09:51:19;;;;;;;12.77;3.17;;;;;;;10.95;100.00;100002.97;4833283;29;20062;-76
2023/12/24 09:53:49;;;;;;;14.07;3.45;;;;;;;11.01;100.00;100006.16;4825224;29;20026;-76
2023/12/24 09:56:15;;;;;;;8.23;2.75;;;;;;;11.00;100.00;100004.56;4831974;29;20030;-76
2023/12/24 09:58:41;;;;;;;13.63;2.60;;;;;;;10.93;100.00;100005.38;4832323;29;20492;-76
2023/12/24 10:01:07;;;;;;;12.20;3.15;;;;;;;10.98;100.00;100009.75;4831473;29;20038;-76
2023/12/24 10:03:32;;;;;;;17.65;3.70;;;;;;;10.98;100.00;100018.97;4840587;29;20033;-76
2023/12/24 10:06:08;;;;;;;9.10;2.25;;;;;;;11.02;100.00;100021.75;4833237;29;20040;-76
2023/12/24 10:08:35;;;;;;;14.10;3.30;;;;;;;10.94;100.00;100021.00;4828958;29;20059;-76
2023/12/24 10:11:20;;;;;;;6.07;3.22;;;;;;;10.94;100.00;100029.38;4837805;29;20227;-76
2023/12/24 10:13:46;;;;;;;6.97;2.70;;;;;;;10.98;100.00;100023.75;4838635;29;20033;-75
2023/12/24 10:16:12;;;;;;;18.02;3.72;;;;;;;10.96;100.00;100020.56;4825521;29;20504;-76
2023/12/24 10:18:47;;;;;;;15.60;4.38;;;;;;;11.00;100.00;100026.97;4830582;29;20045;-76
2023/12/24 10:21:12;;;;;;;10.73;3.65;;;;;;;10.92;100.00;100020.59;4831523;29;20038;-76
2023/12/24 10:23:38;;;;;;;10.65;3.05;;;;;;;11.06;100.00;100018.97;4830127;29;20038;-76
2023/12/24 10:26:05;;;;;;;16.73;4.57;;;;;;;11.11;100.00;100010.97;4827612;29;20058;-76
2023/12/24 10:28:32;;;;;;;14.23;4.15;;;;;;;11.07;100.00;100009.34;4831984;29;20030;-76
2023/12/24 10:31:08;;;;;;;8.55;3.83;;;;;;;11.11;100.00;100021.34;4833266;29;20036;-76
2023/12/24 10:33:37;;;;;;;9.60;3.50;;;;;;;11.13;100.00;100021.75;4825040;29;20034;-76
2023/12/24 10:36:04;;;;;;;11.75;3.70;;;;;;;11.10;100.00;100020.56;4830456;29;20042;-76
2023/12/24 10:38:30;;;;;;;15.95;4.20;;;;;;;11.14;100.00;100014.94;4832437;29;20049;-76
2023/12/24 10:40:56;;;;;;;9.63;3.88;;;;;;;11.19;100.00;100009.75;4829704;29;20029;-76
2023/12/24 10:43:21;;;;;;;14.32;4.57;;;;;;;11.23;100.00;100011.72;4831102;29;20033;-76
2023/12/24 10:45:47;;;;;;;15.85;4.18;;;;;;;11.25;100.00;100006.53;4826739;29;20054;-75
2023/12/24 10:48:13;;;;;;;17.45;5.07;;;;;;;11.25;100.00;99998.13;4827905;29;20120;-76
2023/12/24 10:50:38;;;;;;;13.82;4.40;;;;;;;11.25;100.00;100003.72;4826610;29;20060;-76
2023/12/24 10:53:04;;;;;;;17.52;4.30;;;;;;;11.29;100.00;99984.91;4821694;29;20034;-76
2023/12/24 10:55:31;;;;;;;11.38;5.03;;;;;;;11.25;100.00;99982.09;4823300;29;20477;-76
2023/12/24 10:58:24;;;;;;;11.60;4.80;;;;;;;11.22;100.00;99982.13;4825428;29;20030;-76
2023/12/24 11:00:49;;;;;;;17.52;4.80;;;;;;;11.32;100.00;99968.09;4824910;29;20025;-76
2023/12/24 11:03:41;;;;;;;15.63;4.22;;;;;;;11.26;100.00;99966.09;4838889;29;20084;-76
2023/12/24 11:06:07;;;;;;;13.77;5.82;;;;;;;11.32;100.00;99953.25;4834291;29;20060;-76
2023/12/24 11:08:32;;;;;;;22.27;6.53;;;;;;;11.33;100.00;99954.88;4830255;29;20480;-76
2023/12/24 11:11:06;;;;;;;16.17;5.63;;;;;;;11.29;100.00;99942.88;4826430;29;20038;-76
2023/12/24 11:13:31;;;;;;;19.05;5.10;;;;;;;11.29;100.00;99920.47;4836871;29;20042;-76
2023/12/24 11:16:01;;;;;;;11.68;4.70;;;;;;;11.33;100.00;99926.84;4823616;29;20053;-76
2023/12/24 11:18:46;;;;;;;12.80;4.38;;;;;;;11.31;100.00;99926.47;4835567;29;20041;-75
2023/12/24 11:21:16;;;;;;;14.35;5.18;;;;;;;11.35;100.00;99938.47;4829961;29;20044;-75
2023/12/24 11:24:19;;;;;;;13.15;5.45;;;;;;;11.34;100.00;99934.88;4826959;29;20046;-76
2023/12/24 11:26:48;;;;;;;;;;;;;;;11.42;100.00;99924.41;4833807;29;20070;-76
2023/12/24 11:29:42;;;;;;;22.05;5.25;;;;;;;11.53;100.00;99901.94;4830635;29;19925;-76
2023/12/24 11:32:25;;;;;;;;;;;;;;;11.54;100.00;99903.53;4825947;29;20114;-76
2023/12/24 11:34:55;;;;;;;11.73;5.43;;;;;;;11.55;100.00;99919.97;4825804;29;19917;-75
2023/12/24 11:37:27;;;;;;;20.48;7.05;;;;;;;11.55;100.00;99916.34;4827878;29;20045;-76
2023/12/24 11:40:12;;;;;;;15.70;4.47;;;;;;;11.56;100.00;99901.13;4838819;29;20033;-76
2023/12/24 11:42:49;;;;;;;12.40;4.70;;;;;;;11.58;100.00;99905.13;4828652;29;20034;-75
2023/12/24 11:45:29;;;;;;;11.77;4.05;;;;;;;11.56;100.00;99903.94;4821517;29;20034;-76
2023/12/24 11:47:55;;;;;;;14.70;4.25;;;;;;;11.59;100.00;99908.72;4824958;29;20066;-76
2023/12/24 11:50:22;;;;;;;16.83;5.70;;;;;;;11.63;100.00;99914.31;4823193;29;20041;-75
2023/12/24 11:52:48;;;;;;;13.98;5.57;;;;;;;11.46;100.00;99918.78;4832878;29;20117;-76
2023/12/24 11:55:18;;;;;;;17.33;4.55;;;;;;;11.47;100.00;99929.59;4825976;29;20030;-76
2023/12/24 11:57:44;;;;;;;18.10;4.40;;;;;;;11.40;100.00;99924.00;4823907;29;20086;-76
2023/12/24 12:00:14;;;;;;;17.55;4.25;;;;;;;11.39;100.00;99916.81;4822783;29;20107;-76
2023/12/24 12:02:42;;;;;;;10.88;4.40;;;;;;;11.44;100.00;99913.59;4824439;29;20049;-76
2023/12/24 12:05:08;;;;;;;11.32;4.03;;;;;;;11.41;100.00;99900.41;4826617;29;20038;-76
2023/12/24 12:07:34;;;;;;;7.63;4.40;;;;;;;11.69;100.00;99904.25;4827439;29;20033;-77
2023/12/24 12:09:59;;;;;;;13.75;3.72;;;;;;;11.51;100.00;99893.97;4817792;29;20037;-76
2023/12/24 12:12:25;;;;;;;19.67;3.92;;;;;;;11.45;100.00;99878.78;4829190;29;20030;-75
2023/12/24 12:14:50;;;;;;;11.32;4.10;;;;;;;11.40;100.00;99876.38;4829562;29;20420;-76
2023/12/24 12:17:15;;;;;;;13.88;4.05;;;;;;;11.46;100.00;99873.97;4831040;29;20034;-76
2023/12/24 12:19:41;;;;;;;11.57;4.05;;;;;;;11.38;100.00;99871.22;4830315;29;20595;-76
2023/12/24 12:22:07;;;;;;;10.23;3.95;;;;;;;11.41;100.00;99872.38;4835309;29;20030;-76
2023/12/24 12:24:34;;;;;;;17.48;5.13;;;;;;;11.42;100.00;99873.97;4827967;29;20026;-76
2023/12/24 12:26:59;;;;;;;11.50;4.07;;;;;;;11.47;100.00;99859.56;4835463;29;20166;-75
2023/12/24 12:29:24;;;;;;;11.25;4.63;;;;;;;11.47;100.00;99865.16;4834363;29;20121;-76
2023/12/24 12:31:55;;;;;;;11.95;4.00;;;;;;;11.46;100.00;99852.34;4832360;29;20104;-76
2023/12/24 12:34:21;;;;;;;9.57;4.10;;;;;;;11.43;100.00;99841.97;4824912;29;20181;-75
2023/12/24 12:36:46;;;;;;;11.55;4.07;;;;;;;11.44;100.00;99837.94;4826729;29;20121;-76
2023/12/24 12:39:11;;;;;;;12.85;5.28;;;;;;;11.47;100.00;99825.94;4826070;29;20038;-76
2023/12/24 12:41:37;;;;;;;14.18;4.80;;;;;;;11.52;100.00;99825.47;4823412;29;20038;-75
2023/12/24 12:44:02;;;;;;;7.70;3.55;;;;;;;11.48;100.00;99833.09;4830186;29;20022;-76
2023/12/24 12:46:27;;;;;;;11.80;4.28;;;;;;;11.45;100.00;99836.75;4832138;29;20022;-76
2023/12/24 12:48:54;;;;;;;13.75;4.45;;;;;;;11.46;100.00;99820.72;4834551;29;20407;-76
2023/12/24 12:51:19;;;;;;;19.55;6.07;;;;;;;11.47;100.00;99809.09;4831558;29;20496;-75
2023/12/24 12:53:44;;;;;;;13.73;4.45;;;;;;;11.53;100.00;99827.09;4827640;29;20062;-75
2023/12/24 12:56:10;;;;;;;13.07;4.05;;;;;;;11.52;100.00;99833.09;4836400;29;20667;-76
2023/12/24 12:58:35;;;;;;;18.95;5.47;;;;;;;11.52;100.00;99835.91;4834793;29;20174;-76
2023/12/24 13:01:01;;;;;;;14.25;5.30;;;;;;;11.55;100.00;99844.28;4827563;29;20034;-76
2023/12/24 13:03:26;;;;;;;10.82;4.78;;;;;;;11.51;100.00;99849.13;4831316;29;20536;-76
2023/12/24 13:05:52;;;;;;;27.58;5.75;;;;;;;11.57;100.00;99839.06;4837097;29;20069;-76
2023/12/24 13:08:17;;;;;;;29.50;5.95;;;;;;;11.57;100.00;99830.66;4836678;29;20030;-75
2023/12/24 13:10:43;;;;;;;14.18;4.93;;;;;;;11.57;100.00;99818.63;4827796;29;20034;-75
2023/12/24 13:13:16;;;;;;;24.92;6.10;;;;;;;11.58;100.00;99821.03;4831257;29;20068;-76
2023/12/24 13:15:44;;;;;;;16.00;4.40;;;;;;;11.58;100.00;99814.63;4824607;29;20093;-76
2023/12/24 13:18:16;;;;;;;14.55;5.10;;;;;;;11.66;100.00;99806.97;4819553;29;20034;-75
2023/12/24 13:20:46;;;;;;;14.95;4.40;;;;;;;11.58;100.00;99809.81;4826987;29;20073;-75
2023/12/24 13:23:11;;;;;;;19.40;5.68;;;;;;;11.59;100.00;99796.59;4821814;29;20539;-75
2023/12/24 13:25:42;;;;;;;18.40;4.35;;;;;;;11.57;100.00;99802.66;4829129;29;20034;-75
2023/12/24 13:28:07;;;;;;;16.98;4.53;;;;;;;11.51;100.00;99790.28;4827640;29;20034;-76
2023/12/24 13:30:33;;;;;;;22.92;5.00;;;;;;;11.56;100.00;99789.81;4824883;29;20050;-76
2023/12/24 13:32:58;;;;;;;11.10;4.10;;;;;;;11.53;100.00;99793.47;4826081;29;20034;-76
2023/12/24 13:35:23;;;;;;;15.35;4.32;;;;;;;11.54;100.00;99769.81;4821173;29;20062;-76
2023/12/24 13:37:49;;;;;;;15.10;4.45;;;;;;;11.54;100.00;99767.00;4829126;29;20041;-76
2023/12/24 13:40:14;;;;;;;17.30;6.03;;;;;;;11.54;100.00;99758.59;4825314;29;20117;-77
2023/12/24 13:42:39;;;;;;;13.93;4.78;;;;;;;11.55;100.00;99754.59;4825895;29;20064;-76
2023/12/24 13:45:06;;;;;;;12.48;5.53;;;;;;;11.56;100.00;99744.97;4823013;29;20069;-76
2023/12/24 13:47:31;;;;;;;21.55;4.75;;;;;;;11.54;100.00;99738.19;4819416;29;20064;-76
2023/12/24 13:49:58;;;;;;;13.43;4.43;;;;;;;11.58;100.00;99750.97;4816909;29;20141;-77
2023/12/24 13:52:23;;;;;;;22.33;4.65;;;;;;;11.59;100.00;99732.16;4826206;29;20033;-76
2023/12/24 13:54:48;;;;;;;14.45;4.53;;;;;;;11.59;100.00;99726.53;4829331;29;20472;-77
2023/12/24 13:57:14;;;;;;;14.32;4.88;;;;;;;11.64;100.00;99742.09;4825030;29;20042;-77
2023/12/24 13:59:39;;;;;;;18.45;4.60;;;;;;;11.62;100.00;99730.53;4827289;29;20078;-77
2023/12/24 14:02:06;;;;;;;9.68;3.92;;;;;;;11.63;100.00;99727.31;4829749;29;20030;-76
2023/12/24 14:04:31;;;;;;;22.20;4.28;;;;;;;11.54;100.00;99730.59;4825260;29;20037;-77
2023/12/24 14:06:58;;;;;;;13.02;3.65;;;;;;;11.66;100.00;99734.91;4825724;29;20049;-75
2023/12/24 14:09:23;;;;;;;9.80;4.00;;;;;;;11.69;100.00;99736.06;4827787;29;21424;-76
2023/12/24 14:11:50;;;;;;;11.63;4.10;;;;;;;11.67;100.00;99749.72;4824337;29;20042;-76
2023/12/24 14:14:15;;;;;;;7.15;3.58;;;;;;;11.62;100.00;99736.94;4825039;29;20038;-76
2023/12/24 14:16:44;;;;;;;11.55;3.08;;;;;;;11.61;100.00;99740.94;4824225;29;20129;-76
2023/12/24 14:19:10;;;;;;;9.32;3.85;;;;;;;11.70;100.00;99737.66;4825739;29;20053;-75
2023/12/24 14:21:35;;;;;;;9.95;3.83;;;;;;;11.63;100.00;99754.53;4823724;29;20553;-75
2023/12/24 14:24:00;;;;;;;13.30;3.25;;;;;;;11.68;100.00;99740.91;4826033;29;20484;-75
2023/12/24 14:26:26;;;;;;;9.27;2.70;;;;;;;11.70;100.00;99743.25;4822576;29;20042;-76
2023/12/24 14:28:51;;;;;;;5.65;2.58;;;;;;;11.72;100.00;99743.66;4826855;29;20091;-76
2023/12/24 14:31:16;;;;;;;13.88;3.17;;;;;;;11.72;100.00;99746.44;4825730;29;20070;-75
2023/12/24 14:33:42;;;;;;;8.40;3.30;;;;;;;11.80;100.00;99734.78;4832165;29;20038;-75
2023/12/24 14:36:08;;;;;;;8.38;2.47;;;;;;;11.74;100.00;99732.81;4831833;29;20057;-76
2023/12/24 14:38:33;;;;;;;9.20;2.05;;;;;;;11.76;100.00;99738.81;4825777;29;20073;-75
2023/12/24 14:40:58;;;;;;;10.27;2.47;;;;;;;11.80;100.00;99750.78;4831230;29;20030;-76
2023/12/24 14:43:23;;;;;;;8.13;2.40;;;;;;;11.79;100.00;99758.41;4827156;29;20556;-76
2023/12/24 14:45:49;;;;;;;8.95;2.00;;;;;;;11.82;100.00;99756.00;4823440;29;20422;-76
2023/12/24 14:48:14;;;;;;;13.80;4.93;;;;;;;12.12;100.00;99752.53;4827979;29;20048;-76
2023/12/24 14:50:39;;;;;;;9.98;2.10;;;;;;;11.96;100.00;99742.66;4827301;29;20053;-74
2023/12/24 14:53:05;;;;;;;10.05;2.38;;;;;;;11.86;100.00;99763.16;4827060;29;20040;-75
2023/12/24 14:55:30;;;;;;;9.98;2.72;;;;;;;11.91;100.00;99765.56;4828302;29;20797;-75
2023/12/24 14:57:56;;;;;;;10.20;2.15;;;;;;;11.91;100.00;99762.75;4831383;29;20124;-76
2023/12/24 15:00:21;;;;;;;5.55;2.08;;;;;;;11.93;100.00;99768.75;4825432;29;20412;-76
2023/12/24 15:02:47;;;;;;;12.57;2.38;;;;;;;11.92;100.00;99755.13;4832071;29;20045;-75
2023/12/24 15:05:12;;;;;;;9.65;2.05;;;;;;;11.96;100.00;99767.13;4830147;29;20030;-75
2023/12/24 15:07:38;;;;;;;8.10;2.15;;;;;;;11.95;100.00;99755.09;4834214;29;20503;-76
2023/12/24 15:10:05;;;;;;;10.63;2.10;;;;;;;11.94;100.00;99750.69;4828780;29;20041;-75
2023/12/24 15:12:31;;;;;;;11.35;3.10;;;;;;;11.96;100.00;99753.88;4828609;29;20656;-76
2023/12/24 15:14:57;;;;;;;5.90;2.60;;;;;;;11.96;100.00;99745.47;4827549;29;20062;-76
2023/12/24 15:17:22;;;;;;;7.05;2.53;;;;;;;11.94;100.00;99747.88;4823773;29;20084;-75
2023/12/24 15:19:49;;;;;;;5.03;1.75;;;;;;;12.03;100.00;99749.41;4827705;29;20030;-76
2023/12/24 15:22:14;;;;;;;3.05;2.03;;;;;;;12.03;100.00;99743.81;4834636;29;20411;-75
2023/12/24 15:24:39;;;;;;;6.00;1.90;;;;;;;11.98;100.00;99745.84;4830545;29;20045;-77
2023/12/24 15:27:05;;;;;;;3.83;1.52;;;;;;;11.99;100.00;99743.84;4840292;29;20080;-76
2023/12/24 15:29:30;;;;;;;7.15;2.42;;;;;;;11.97;100.00;99743.44;4830111;29;20045;-76
2023/12/24 15:31:56;;;;;;;5.78;1.85;;;;;;;12.00;100.00;99746.22;4826695;29;20117;-76
2023/12/24 15:34:21;;;;;;;6.40;1.88;;;;;;;11.97;100.00;99758.28;4823474;29;20473;-76
2023/12/24 15:36:46;;;;;;;8.40;2.63;;;;;;;11.99;100.00;99757.84;4827911;29;22815;-76
2023/12/24 15:39:12;;;;;;;9.50;2.25;;;;;;;11.98;100.00;99770.31;4829507;29;20062;-75
2023/12/24 15:41:38;;;;;;;6.00;2.08;;;;;;;11.97;100.00;99765.88;4830573;29;20031;-76
2023/12/24 15:44:03;;;;;;;4.03;1.88;;;;;;;12.00;100.00;99779.09;4832710;29;20037;-75
2023/12/24 15:46:30;;;;;;;4.07;1.80;;;;;;;12.03;100.00;99774.66;4826185;29;20119;-75
2023/12/24 15:48:55;;;;;;;4.55;1.60;;;;;;;12.01;100.00;99769.47;4827760;29;20396;-76
2023/12/24 15:51:21;;;;;;;3.80;3.05;;;;;;;12.02;100.00;99787.06;4824128;29;20030;-76
2023/12/24 15:53:46;;;;;;;4.72;2.28;;;;;;;12.02;100.00;99770.25;4824071;29;20038;-76
2023/12/24 15:56:22;;;;;;;9.98;3.58;;;;;;;11.99;100.00;99764.28;4826766;29;20052;-76
2023/12/24 15:58:47;;;;;;;8.20;2.88;;;;;;;12.00;100.00;99762.28;4826958;29;20034;-76
2023/12/24 16:01:12;;;;;;;8.20;2.70;;;;;;;12.00;100.00;99774.28;4821734;29;20037;-76
2023/12/24 16:03:39;;;;;;;8.13;3.70;;;;;;;12.02;100.00;99773.88;4830520;29;20067;-76
2023/12/24 16:06:05;;;;;;;6.82;2.20;;;;;;;12.05;100.00;99770.22;4823987;29;20121;-75
2023/12/24 16:08:30;;;;;;;5.53;2.60;;;;;;;12.05;100.00;99758.22;4826928;29;20038;-76
2023/12/24 16:10:57;;;;;;;12.13;4.38;;;;;;;12.13;100.00;99771.75;4830647;29;20036;-75
2023/12/24 16:13:22;;;;;;;11.90;3.20;;;;;;;12.18;100.00;99773.31;4829776;29;20038;-76
2023/12/24 16:15:47;;;;;;;6.60;2.20;;;;;;;12.18;100.00;99773.31;4827995;29;20053;-76
2023/12/24 16:18:13;;;;;;;11.80;3.45;;;;;;;12.21;100.00;99778.09;4827688;29;20030;-75
2023/12/24 16:20:38;;;;;;;17.10;3.85;;;;;;;12.25;100.00;99790.09;4821896;29;20034;-76
2023/12/24 16:23:03;;;;;;;12.45;3.40;;;;;;;12.24;100.00;99793.28;4824481;29;20037;-75
2023/12/24 16:25:29;;;;;;;10.40;4.28;;;;;;;12.27;100.00;99787.66;4829841;29;20058;-76
2023/12/24 16:27:55;;;;;;;19.25;4.05;;;;;;;12.26;100.00;99783.25;4828281;29;20030;-75
2023/12/24 16:30:20;;;;;;;12.15;4.00;;;;;;;12.24;100.00;99791.28;4827767;29;20089;-76
2023/12/24 16:32:45;;;;;;;11.65;5.22;;;;;;;12.25;100.00;99801.31;4833485;29;20408;-75
2023/12/24 16:35:11;;;;;;;11.57;3.67;;;;;;;12.29;100.00;99807.69;4831443;29;20030;-76
2023/12/24 16:37:36;;;;;;;10.35;4.72;;;;;;;12.27;100.00;99814.91;4829098;29;20046;-76
2023/12/24 16:40:02;;;;;;;12.77;4.93;;;;;;;12.29;100.00;99813.28;4832715;29;20682;-76
2023/12/24 16:42:28;;;;;;;13.07;4.80;;;;;;;12.28;100.00;99825.72;4828952;29;20472;-76
2023/12/24 16:44:53;;;;;;;12.27;4.20;;;;;;;12.30;100.00;99816.88;4833184;29;20034;-75
2023/12/24 16:47:18;;;;;;;16.10;4.93;;;;;;;12.22;100.00;99830.19;4827284;29;20033;-75
2023/12/24 16:49:44;;;;;;;18.05;4.93;;;;;;;12.21;100.00;99820.19;4821610;29;20398;-75
2023/12/24 16:52:09;;;;;;;12.85;4.35;;;;;;;12.24;100.00;99805.31;4827939;29;20038;-76
2023/12/24 16:54:35;;;;;;;17.23;3.92;;;;;;;12.24;100.00;99821.34;4831168;29;20042;-75
2023/12/24 16:57:00;;;;;;;22.38;3.90;;;;;;;12.24;100.00;99816.53;4826830;29;20500;-75
2023/12/24 16:59:26;;;;;;;12.48;4.13;;;;;;;12.29;100.00;99818.91;4830757;29;20036;-76
2023/12/24 17:01:51;;;;;;;16.13;3.97;;;;;;;12.30;100.00;99805.66;4835010;29;20038;-76
2023/12/24 17:04:17;;;;;;;9.35;4.03;;;;;;;12.32;100.00;99818.06;4839362;29;20044;-76
2023/12/24 17:06:42;;;;;;;18.55;3.80;;;;;;;12.30;100.00;99826.09;4831102;29;20458;-76
2023/12/24 17:09:09;;;;;;;18.25;3.95;;;;;;;12.26;100.00;99836.56;4829222;29;20052;-75
2023/12/24 17:11:35;;;;;;;9.77;3.85;;;;;;;12.25;100.00;99834.16;4825230;29;20042;-76
2023/12/24 17:14:00;;;;;;;9.30;2.90;;;;;;;12.30;100.00;99840.13;4831815;29;20085;-75
2023/12/24 17:16:26;;;;;;;15.70;4.00;;;;;;;12.28;100.00;99848.16;4828660;29;20042;-76
2023/12/24 17:18:51;;;;;;;13.07;3.50;;;;;;;12.31;100.00;99838.94;4834462;29;20037;-76
2023/12/24 17:21:16;;;;;;;12.27;4.28;;;;;;;12.29;100.00;99829.31;4836751;29;20040;-76
2023/12/24 17:23:42;;;;;;;9.02;2.85;;;;;;;12.30;100.00;99845.72;4833387;29;20042;-75
2023/12/24 17:26:07;;;;;;;10.05;3.00;;;;;;;12.34;100.00;99842.91;4831143;29;20045;-76
2023/12/24 17:28:32;;;;;;;15.40;5.07;;;;;;;12.28;100.00;99850.97;4828831;29;20073;-76
2023/12/24 17:30:58;;;;;;;15.60;2.88;;;;;;;12.27;100.00;99840.16;4828216;29;20065;-76
2023/12/24 17:33:23;;;;;;;20.92;3.78;;;;;;;12.28;100.00;99844.56;4827809;29;20466;-76
2023/12/24 17:35:49;;;;;;;13.85;3.42;;;;;;;12.29;100.00;99869.41;4828131;29;20042;-76
2023/12/24 17:38:15;;;;;;;15.98;4.38;;;;;;;12.24;100.00;99858.63;4829062;29;20026;-75
2023/12/24 17:40:40;;;;;;;10.43;3.03;;;;;;;12.30;100.00;99848.53;4830306;29;20386;-76
2023/12/24 17:43:06;;;;;;;11.73;3.35;;;;;;;12.28;100.00;99856.56;4833733;29;20030;-76
2023/12/24 17:45:31;;;;;;;12.00;2.40;;;;;;;12.26;100.00;99861.81;4834033;29;20389;-76
2023/12/24 17:47:56;;;;;;;19.77;4.05;;;;;;;12.32;100.00;99868.56;4833081;29;20051;-75
2023/12/24 17:50:22;;;;;;;12.48;3.83;;;;;;;12.27;100.00;99862.59;4834259;29;20140;-76
2023/12/24 17:52:47;;;;;;;11.00;2.65;;;;;;;12.31;100.00;99871.78;4822845;29;20033;-76
2023/12/24 17:55:12;;;;;;;14.70;3.60;;;;;;;12.31;100.00;99866.16;4836222;29;20064;-76
2023/12/24 17:57:38;;;;;;;13.77;2.50;;;;;;;12.31;100.00;99880.19;4832903;29;20040;-76
2023/12/24 18:00:06;;;;;;;15.27;3.13;;;;;;;12.33;100.00;99887.00;4833404;29;20030;-75
2023/12/24 18:02:33;;;;;;;14.68;2.92;;;;;;;12.28;100.00;99895.06;4830248;29;20040;-76
2023/12/24 18:04:59;;;;;;;10.02;3.40;;;;;;;12.28;100.00;99890.25;4830135;29;20034;-76
2023/12/24 18:07:24;;;;;;;12.10;2.70;;;;;;;12.26;100.00;99880.66;4830478;29;20040;-76
2023/12/24 18:09:49;;;;;;;8.52;2.70;;;;;;;12.29;100.00;99883.44;4843763;29;20532;-75
2023/12/24 18:12:15;;;;;;;10.45;2.85;;;;;;;12.31;100.00;99872.59;4833305;29;20063;-76
2023/12/24 18:14:41;;;;;;;9.05;2.55;;;;;;;12.20;100.00;99894.31;4831083;29;20075;-76
2023/12/24 18:17:06;;;;;;;12.73;3.60;;;;;;;12.26;100.00;99903.88;4828682;29;20045;-76
2023/12/24 18:19:32;;;;;;;11.00;2.08;;;;;;;12.24;100.00;99900.69;4839139;29;20037;-75
2023/12/24 18:21:57;;;;;;;7.63;2.47;;;;;;;12.28;100.00;99895.84;4838864;29;20042;-76
2023/12/24 18:24:22;;;;;;;15.30;3.00;;;;;;;12.27;100.00;99888.66;4840723;29;20637;-75
2023/12/24 18:26:48;;;;;;;13.98;3.00;;;;;;;12.30;100.00;99893.44;4841390;29;20464;-75
2023/12/24 18:29:13;;;;;;;13.82;4.72;;;;;;;12.28;100.00;99867.81;4839576;29;20038;-75
2023/12/24 18:31:43;;;;;;;15.25;3.75;;;;;;;12.24;100.00;99861.41;4831882;29;20038;-76
2023/12/24 18:34:09;;;;;;;11.68;4.72;;;;;;;12.27;100.00;99842.94;4836072;29;20034;-75
2023/12/24 18:36:35;;;;;;;12.80;4.10;;;;;;;12.33;100.00;99856.16;4832293;29;20058;-76
2023/12/24 18:39:00;;;;;;;14.20;3.70;;;;;;;12.32;100.00;99882.59;4837080;29;20073;-77
2023/12/24 18:41:26;;;;;;;10.15;3.75;;;;;;;12.29;100.00;99863.78;4822759;29;20041;-76
2023/12/24 18:43:52;;;;;;;12.10;2.47;;;;;;;12.36;100.00;99886.16;4823724;29;20041;-76
2023/12/24 18:46:17;;;;;;;14.77;3.10;;;;;;;12.33;100.00;99864.56;4824457;29;20042;-75
2023/12/24 18:48:44;;;;;;;14.63;3.00;;;;;;;12.36;100.00;99868.53;4831690;29;20038;-76
2023/12/24 18:51:11;;;;;;;18.02;4.00;;;;;;;12.27;100.00;99874.63;4830565;29;20055;-75
2023/12/24 18:53:40;;;;;;;18.20;3.35;;;;;;;12.22;100.00;99880.69;4826652;29;20030;-76
2023/12/24 18:56:10;;;;;;;12.02;2.63;;;;;;;12.21;100.00;99879.09;4822661;29;20087;-76
2023/12/24 18:58:36;;;;;;;13.15;3.58;;;;;;;12.23;100.00;99887.91;4827010;29;20396;-76
2023/12/24 19:01:02;;;;;;;10.65;3.40;;;;;;;12.22;100.00;99913.56;4830394;29;20046;-76
2023/12/24 19:03:27;;;;;;;14.93;3.15;;;;;;;12.18;100.00;99908.78;4830096;29;20042;-75
2023/12/24 19:05:52;;;;;;;10.98;2.80;;;;;;;12.18;100.00;99907.97;4830550;29;20529;-76
2023/12/24 19:08:18;;;;;;;13.95;3.90;;;;;;;12.11;100.00;99908.81;4825236;29;20485;-76
2023/12/24 19:10:43;;;;;;;9.05;2.88;;;;;;;12.09;100.00;99905.63;4822395;29;20505;-76
2023/12/24 19:13:08;;;;;;;14.20;6.55;;;;;;;12.11;100.00;99913.63;4841687;29;20032;-76
2023/12/24 19:15:34;;;;;;;11.52;4.10;;;;;;;12.10;100.00;99917.63;4830298;29;20122;-76
2023/12/24 19:17:59;;;;;;;12.93;4.00;;;;;;;12.06;100.00;99909.28;4827669;29;20034;-76
2023/12/24 19:20:25;;;;;;;14.50;4.28;;;;;;;12.03;100.00;99900.88;4825495;29;20037;-75
2023/12/24 19:22:50;;;;;;;16.70;3.05;;;;;;;12.05;100.00;99924.47;4825862;29;20080;-76
2023/12/24 19:25:16;;;;;;;23.10;3.50;;;;;;;12.03;100.00;99942.94;4824846;29;20046;-76
2023/12/24 19:27:41;;;;;;;12.10;3.05;;;;;;;12.00;100.00;99931.34;4828777;29;20041;-76
2023/12/24 19:30:07;;;;;;;8.40;2.20;;;;;;;11.97;100.00;99954.59;4823878;29;20038;-76
2023/12/24 19:32:32;;;;;;;16.52;3.22;;;;;;;11.98;100.00;99942.16;4822161;29;20041;-76